Time;durP1;ratioP1;P1;durP2;ratioP2;P2;SDS_P1;SDS_P2;PMS_P1;PMS_P2;Temp;Humidity;BMP_temperature;BMP_pressure;BME280_temperature;BME280_humidity;BME280_pressure;Samples;Min_cycle;Max_cycle;Signal;HPM_P1;HPM_P2
2022/01/07 00:00:25;;;;;;;36.40;12.90;;;;;;;2.91;72.54;100350.13;4950789;28;20042;-87
2022/01/07 00:03:11;;;;;;;31.30;12.35;;;;;;;2.90;72.44;100355.44;4970984;28;20051;-87
2022/01/07 00:05:39;;;;;;;44.72;13.60;;;;;;;2.88;72.35;100352.91;4975551;28;20138;-87
2022/01/07 00:08:06;;;;;;;36.22;13.02;;;;;;;2.88;72.29;100354.69;4961675;28;20057;-87
2022/01/07 00:10:33;;;;;;;33.70;13.20;;;;;;;2.86;72.37;100354.75;4984482;28;20889;-87
2022/01/07 00:12:59;;;;;;;39.20;15.35;;;;;;;2.86;72.71;100346.03;4968629;28;20602;-87
2022/01/07 00:15:29;;;;;;;37.38;15.98;;;;;;;2.84;72.63;100348.72;4951592;28;20130;-87
2022/01/07 00:17:55;;;;;;;34.17;15.10;;;;;;;2.83;72.70;100347.03;4961823;28;20392;-87
2022/01/07 00:20:22;;;;;;;38.75;13.70;;;;;;;2.83;72.89;100347.03;4932358;28;20046;-87
2022/01/07 00:22:49;;;;;;;36.05;13.05;;;;;;;2.82;72.83;100348.81;4959475;28;20129;-87
2022/01/07 00:25:17;;;;;;;43.15;14.75;;;;;;;2.82;73.03;100345.31;4966944;28;20046;-87
2022/01/07 00:27:44;;;;;;;39.55;14.82;;;;;;;2.82;72.74;100343.56;4967433;28;20053;-87
2022/01/07 00:30:13;;;;;;;38.58;15.13;;;;;;;2.82;72.75;100348.81;4982850;28;20446;-87
2022/01/07 00:32:39;;;;;;;27.20;13.32;;;;;;;2.81;72.69;100344.47;4969288;28;20073;-87
2022/01/07 00:35:08;;;;;;;31.38;13.45;;;;;;;2.82;72.77;100346.19;4975982;28;20113;-86
2022/01/07 00:37:35;;;;;;;38.47;14.40;;;;;;;2.82;72.82;100355.81;4978488;28;20057;-87
2022/01/07 00:40:04;;;;;;;40.47;14.63;;;;;;;2.79;72.65;100351.56;4967639;28;20049;-87
2022/01/07 00:42:31;;;;;;;44.47;14.55;;;;;;;2.79;72.83;100345.47;4987638;28;20050;-87
2022/01/07 00:44:59;;;;;;;38.13;13.57;;;;;;;2.79;72.83;100342.84;4982143;28;20046;-86
2022/01/07 00:47:25;;;;;;;38.22;13.73;;;;;;;2.78;72.94;100333.28;4977979;28;20049;-86
2022/01/07 00:49:52;;;;;;;32.97;14.40;;;;;;;2.79;73.03;100335.81;4967554;28;20045;-87
2022/01/07 00:52:19;;;;;;;32.13;12.85;;;;;;;2.79;73.11;100332.34;4983314;28;20047;-86
2022/01/07 00:54:46;;;;;;;32.97;11.93;;;;;;;2.77;73.28;100319.34;4967466;28;20031;-87
2022/01/07 00:57:12;;;;;;;33.63;11.55;;;;;;;2.79;73.15;100314.00;4976033;28;20046;-87
2022/01/07 00:59:39;;;;;;;32.40;12.35;;;;;;;2.77;73.27;100316.72;4952762;28;20046;-86
2022/01/07 01:02:07;;;;;;;30.73;12.20;;;;;;;2.77;73.08;100315.84;4974972;28;20097;-83
2022/01/07 01:04:44;;;;;;;38.20;15.18;;;;;;;2.76;73.38;100319.41;4958611;28;20121;-83
2022/01/07 01:07:12;;;;;;;44.72;17.08;;;;;;;2.75;73.24;100313.31;4971595;28;20038;-84
2022/01/07 01:09:39;;;;;;;36.80;12.90;;;;;;;2.75;73.35;100317.72;4989696;28;20046;-84
2022/01/07 01:12:09;;;;;;;42.17;15.00;;;;;;;2.75;73.29;100320.34;4969984;28;20042;-84
2022/01/07 01:14:35;;;;;;;42.15;15.13;;;;;;;2.74;73.38;100308.97;4970384;28;20046;-83
2022/01/07 01:17:03;;;;;;;39.25;15.45;;;;;;;2.74;73.17;100313.38;4969237;28;20050;-83
2022/01/07 01:19:30;;;;;;;40.70;14.18;;;;;;;2.72;73.19;100313.47;4964007;28;20041;-84
2022/01/07 01:21:57;;;;;;;42.72;15.52;;;;;;;2.73;73.15;100309.06;4954208;28;20047;-84
2022/01/07 01:24:23;;;;;;;35.15;13.13;;;;;;;2.72;73.06;100307.34;4969325;28;20125;-84
2022/01/07 01:26:50;;;;;;;31.30;13.27;;;;;;;2.70;73.39;100312.69;4971611;28;20042;-83
2022/01/07 01:29:20;;;;;;;33.50;12.65;;;;;;;2.70;72.88;100306.59;4957642;28;20121;-84
2022/01/07 01:31:46;;;;;;;32.63;13.30;;;;;;;2.68;73.22;100314.53;4969775;28;20057;-84
2022/01/07 01:34:13;;;;;;;39.55;14.55;;;;;;;2.68;73.05;100313.69;4964126;28;20046;-84
2022/01/07 01:36:40;;;;;;;35.30;15.45;;;;;;;2.67;73.02;100301.47;4970038;28;20050;-84
2022/01/07 01:39:08;;;;;;;33.50;14.48;;;;;;;2.68;73.11;100300.56;4963422;28;20045;-84
2022/01/07 01:41:34;;;;;;;48.92;14.85;;;;;;;2.66;73.30;100300.63;4968637;28;20058;-83
2022/01/07 01:44:01;;;;;;;33.80;13.45;;;;;;;2.65;73.01;100296.34;4969890;28;20152;-84
2022/01/07 01:46:28;;;;;;;34.13;14.15;;;;;;;2.63;72.97;100294.72;4937598;28;20058;-84
2022/01/07 01:48:55;;;;;;;38.83;15.52;;;;;;;2.63;73.29;100297.31;4952748;28;20102;-83
2022/01/07 01:51:21;;;;;;;34.67;13.75;;;;;;;2.61;73.04;100289.53;4977564;28;20069;-84
2022/01/07 01:53:48;;;;;;;37.38;15.63;;;;;;;2.60;73.29;100283.44;4950449;28;20101;-83
2022/01/07 01:56:15;;;;;;;41.08;15.43;;;;;;;2.59;73.30;100281.72;4954440;28;20449;-84
2022/01/07 01:58:42;;;;;;;37.88;15.88;;;;;;;2.59;73.15;100279.09;4972351;28;20038;-84
2022/01/07 02:01:09;;;;;;;40.85;14.32;;;;;;;2.58;73.31;100284.44;4988508;28;20050;-83
2022/01/07 02:03:36;;;;;;;43.72;14.50;;;;;;;2.58;73.23;100274.78;4987079;28;20038;-83
2022/01/07 02:06:03;;;;;;;37.15;15.25;;;;;;;2.56;73.14;100274.00;4955606;28;20042;-84
2022/01/07 02:08:30;;;;;;;42.13;15.18;;;;;;;2.57;73.19;100269.59;4975516;28;20038;-83
2022/01/07 02:10:58;;;;;;;41.95;16.17;;;;;;;2.55;73.30;100274.94;4965914;28;20050;-83
2022/01/07 02:13:25;;;;;;;28.45;13.50;;;;;;;2.54;73.33;100270.59;4987495;28;20046;-83
2022/01/07 02:15:52;;;;;;;36.50;13.40;;;;;;;2.56;73.32;100273.16;4989041;28;20053;-83
2022/01/07 02:18:21;;;;;;;39.42;13.90;;;;;;;2.52;73.35;100264.63;4973824;28;20046;-84
2022/01/07 02:20:48;;;;;;;36.50;14.30;;;;;;;2.52;73.11;100272.47;4984177;28;20061;-83
2022/01/07 02:23:17;;;;;;;36.55;12.25;;;;;;;2.51;73.24;100267.28;4969333;28;20046;-84
2022/01/07 02:25:44;;;;;;;32.92;12.98;;;;;;;2.51;73.34;100267.28;4956550;28;20425;-84
2022/01/07 02:28:12;;;;;;;28.27;13.82;;;;;;;2.50;73.18;100263.00;4977477;28;20038;-84
2022/01/07 02:30:39;;;;;;;37.55;14.68;;;;;;;2.49;73.10;100269.97;4960231;28;20045;-84
2022/01/07 02:33:36;;;;;;;34.58;13.82;;;;;;;2.40;73.25;100257.34;4971291;28;20405;-84
2022/01/07 02:36:07;;;;;;;34.08;13.55;;;;;;;2.47;73.48;100263.09;4950833;28;20134;-83
2022/01/07 02:38:34;;;;;;;35.05;15.23;;;;;;;2.47;73.41;100252.63;4968935;28;20054;-83
2022/01/07 02:41:01;;;;;;;50.88;17.70;;;;;;;2.46;73.15;100256.19;4970515;28;20038;-84
2022/01/07 02:43:28;;;;;;;44.38;16.55;;;;;;;2.45;73.25;100252.72;4987731;28;20104;-84
2022/01/07 02:45:55;;;;;;;47.00;17.77;;;;;;;2.44;73.24;100252.78;4988612;28;20417;-83
2022/01/07 02:48:23;;;;;;;49.38;19.52;;;;;;;2.44;73.13;100248.38;4955449;28;20046;-83
2022/01/07 02:50:50;;;;;;;54.65;19.55;;;;;;;2.42;73.55;100252.88;4984416;28;20050;-83
2022/01/07 02:53:17;;;;;;;47.10;17.88;;;;;;;2.42;73.59;100247.63;4970741;28;20046;-83
2022/01/07 02:55:44;;;;;;;47.22;16.15;;;;;;;2.44;73.55;100252.78;4985032;28;20109;-83
2022/01/07 02:58:11;;;;;;;42.05;16.58;;;;;;;2.43;73.45;100253.72;4972465;28;20120;-84
2022/01/07 03:00:38;;;;;;;39.67;16.40;;;;;;;2.44;73.49;100256.25;4982523;28;20042;-83
2022/01/07 03:03:09;;;;;;;39.92;16.58;;;;;;;2.40;73.41;100259.94;4986518;28;20121;-84
2022/01/07 03:05:39;;;;;;;39.28;14.95;;;;;;;2.42;73.47;100254.63;4985941;28;20387;-84
2022/01/07 03:08:05;;;;;;;32.95;13.52;;;;;;;2.41;73.58;100247.69;4956537;28;20509;-83
2022/01/07 03:10:33;;;;;;;40.38;14.65;;;;;;;2.42;73.45;100252.88;4968187;28;20050;-83
2022/01/07 03:13:01;;;;;;;43.10;14.55;;;;;;;2.41;73.72;100243.28;4969350;28;20390;-84
2022/01/07 03:15:30;;;;;;;33.55;14.07;;;;;;;2.41;73.60;100237.22;4983917;28;20574;-84
2022/01/07 03:17:57;;;;;;;38.78;14.90;;;;;;;2.39;73.98;100238.16;4966497;28;20046;-83
2022/01/07 03:20:24;;;;;;;45.95;15.73;;;;;;;2.39;73.81;100240.78;4984821;28;20054;-83
2022/01/07 03:22:51;;;;;;;40.20;15.95;;;;;;;2.37;73.64;100237.38;4956346;28;20053;-83
2022/01/07 03:29:34;;;;;;;36.92;14.32;;;;;;;2.33;73.86;100230.56;4962226;28;20034;-84
2022/01/07 03:32:02;;;;;;;38.85;14.38;;;;;;;2.33;73.85;100225.31;4968276;28;20042;-83
2022/01/07 03:34:29;;;;;;;42.92;15.45;;;;;;;2.33;73.75;100222.69;4968889;28;20061;-83
2022/01/07 03:36:56;;;;;;;32.67;14.30;;;;;;;2.34;73.88;100223.53;4981629;28;20046;-83
2022/01/07 03:39:23;;;;;;;39.03;14.82;;;;;;;2.33;73.89;100221.84;4986464;28;20039;-84
2022/01/07 03:42:17;;;;;;;32.85;13.95;;;;;;;2.26;74.13;100223.91;4987175;28;20046;-84
2022/01/07 03:44:44;;;;;;;34.58;13.25;;;;;;;2.32;73.99;100218.38;4923219;28;20046;-84
2022/01/07 03:47:11;;;;;;;36.42;13.57;;;;;;;2.31;74.10;100210.59;4981311;28;20096;-83
2022/01/07 03:49:37;;;;;;;30.80;13.05;;;;;;;2.31;74.04;100219.28;4979031;28;20101;-83
2022/01/07 03:52:05;;;;;;;42.08;14.95;;;;;;;2.32;73.99;100215.78;4955258;28;20077;-84
2022/01/07 03:54:32;;;;;;;34.15;12.98;;;;;;;2.33;73.86;100216.63;4983926;28;20409;-83
2022/01/07 03:56:59;;;;;;;32.17;12.65;;;;;;;2.31;74.19;100218.44;4982553;28;20050;-83
2022/01/07 03:59:26;;;;;;;36.33;13.93;;;;;;;2.31;74.02;100210.59;4983815;28;20453;-83
2022/01/07 04:01:52;;;;;;;31.70;13.93;;;;;;;2.32;73.99;100217.56;4983581;28;20061;-83
2022/01/07 04:04:19;;;;;;;29.02;12.52;;;;;;;2.31;74.18;100219.28;4949606;28;20081;-84
2022/01/07 04:06:46;;;;;;;43.20;13.70;;;;;;;2.32;74.14;100218.38;4981023;28;20502;-84
2022/01/07 04:09:13;;;;;;;33.33;13.00;;;;;;;2.31;74.31;100219.28;4967056;28;20056;-83
2022/01/07 04:11:39;;;;;;;35.05;13.27;;;;;;;2.31;74.11;100214.06;4917192;28;20074;-84
2022/01/07 04:14:06;;;;;;;35.25;15.60;;;;;;;2.31;74.17;100221.91;4957569;28;20050;-84
2022/01/07 04:16:33;;;;;;;35.28;12.10;;;;;;;2.32;74.52;100222.78;4969304;28;20057;-83
2022/01/07 04:19:00;;;;;;;35.85;13.30;;;;;;;2.31;74.49;100216.69;4948496;28;20042;-83
2022/01/07 04:21:32;;;;;;;35.15;12.85;;;;;;;2.29;74.29;100223.78;4969626;28;20050;-83
2022/01/07 04:23:59;;;;;;;35.78;13.70;;;;;;;2.32;74.51;100222.78;4954076;28;20112;-84
2022/01/07 04:26:26;;;;;;;39.40;14.93;;;;;;;2.33;74.58;100221.84;4951038;28;20402;-84
2022/01/07 04:28:52;;;;;;;26.20;10.50;;;;;;;2.32;74.68;100218.38;4969630;28;20046;-83
2022/01/07 04:31:19;;;;;;;39.60;13.38;;;;;;;2.32;74.48;100215.78;4967520;28;20049;-83
2022/01/07 04:33:46;;;;;;;28.95;11.02;;;;;;;2.32;74.89;100218.38;4973793;28;20042;-84
2022/01/07 04:36:14;;;;;;;36.97;13.25;;;;;;;2.32;74.87;100214.94;4969730;28;20513;-84
2022/01/07 04:38:41;;;;;;;38.03;12.38;;;;;;;2.31;74.70;100207.97;4977138;28;20046;-83
2022/01/07 04:41:08;;;;;;;31.02;13.02;;;;;;;2.31;74.85;100213.22;4942946;28;20046;-83
2022/01/07 04:43:34;;;;;;;34.03;15.50;;;;;;;2.30;74.67;100217.59;4969312;28;20058;-84
2022/01/07 04:46:01;;;;;;;39.10;13.57;;;;;;;2.32;74.57;100221.00;4932274;28;20409;-83
2022/01/07 04:48:28;;;;;;;33.97;14.43;;;;;;;2.32;74.93;100213.16;4929278;28;20046;-83
2022/01/07 04:50:55;;;;;;;37.72;13.18;;;;;;;2.31;74.88;100210.59;4967427;28;20045;-83
2022/01/07 04:53:22;;;;;;;37.75;14.27;;;;;;;2.31;74.84;100205.34;4964605;28;20043;-84
2022/01/07 04:55:49;;;;;;;30.55;12.18;;;;;;;2.31;74.90;100194.88;4962845;28;20038;-83
2022/01/07 04:58:15;;;;;;;36.58;14.77;;;;;;;2.30;74.70;100201.88;4982192;28;20049;-84
2022/01/07 05:00:43;;;;;;;35.30;13.80;;;;;;;2.31;74.87;100200.09;4963247;28;20115;-83
2022/01/07 05:03:12;;;;;;;46.00;15.98;;;;;;;2.30;74.77;100201.03;4969582;28;20046;-83
2022/01/07 05:05:39;;;;;;;43.50;16.90;;;;;;;2.29;74.73;100204.56;4969811;28;20514;-84
2022/01/07 05:08:06;;;;;;;46.25;19.05;;;;;;;2.28;74.83;100205.50;4967540;28;20054;-83
2022/01/07 05:10:33;;;;;;;45.08;24.85;;;;;;;2.26;74.86;100196.88;4985660;28;20046;-84
2022/01/07 05:13:56;;;;;;;46.22;26.63;;;;;;;2.19;74.92;100193.72;4984364;28;20045;-83
2022/01/07 05:16:24;;;;;;;39.95;23.13;;;;;;;2.23;74.87;100197.00;4934063;28;20047;-84
2022/01/07 05:18:50;;;;;;;33.65;18.13;;;;;;;2.22;74.73;100195.34;4984136;28;20053;-84
2022/01/07 05:21:17;;;;;;;38.78;17.10;;;;;;;2.21;74.72;100198.84;4966960;28;20100;-84
2022/01/07 05:23:44;;;;;;;37.08;14.80;;;;;;;2.22;74.49;100197.94;4969546;28;20050;-83
2022/01/07 05:26:10;;;;;;;35.38;14.13;;;;;;;2.21;74.49;100196.25;4967896;28;20050;-83
2022/01/07 05:28:37;;;;;;;37.17;13.93;;;;;;;2.22;74.61;100195.34;4967303;28;20060;-84
2022/01/07 05:31:04;;;;;;;30.70;13.63;;;;;;;2.22;74.75;100190.09;4953194;28;20039;-84
2022/01/07 05:33:31;;;;;;;39.10;15.40;;;;;;;2.20;74.62;100194.56;4965078;28;20088;-83
2022/01/07 05:35:58;;;;;;;32.35;13.18;;;;;;;2.22;74.85;100192.72;4969239;28;20058;-83
2022/01/07 05:38:24;;;;;;;29.90;12.65;;;;;;;2.21;74.79;100193.63;4949423;28;20038;-84
2022/01/07 05:40:51;;;;;;;41.00;14.05;;;;;;;2.21;74.70;100191.00;4967644;28;20047;-83
2022/01/07 05:43:18;;;;;;;33.58;13.65;;;;;;;2.21;74.95;100189.22;4965685;28;20043;-83
2022/01/07 05:45:45;;;;;;;38.72;13.13;;;;;;;2.21;75.05;100188.38;4949846;28;20058;-84
2022/01/07 05:48:13;;;;;;;36.72;14.55;;;;;;;2.20;74.84;100184.06;4967631;28;20060;-84
2022/01/07 05:50:39;;;;;;;30.02;12.77;;;;;;;2.20;74.75;100182.28;4958710;28;20058;-83
2022/01/07 05:53:06;;;;;;;34.33;14.27;;;;;;;2.21;74.70;100180.50;4956518;28;20053;-84
2022/01/07 05:55:33;;;;;;;41.40;16.13;;;;;;;2.20;74.85;100182.28;4969510;28;20046;-84
2022/01/07 05:58:00;;;;;;;40.15;16.85;;;;;;;2.20;74.96;100174.44;4955966;28;20050;-83
2022/01/07 06:00:28;;;;;;;35.40;14.05;;;;;;;2.18;74.68;100174.50;4972002;28;20041;-84
2022/01/07 06:02:55;;;;;;;28.42;12.13;;;;;;;2.20;74.76;100174.44;5002631;28;20105;-84
2022/01/07 06:05:22;;;;;;;34.50;13.90;;;;;;;2.20;74.93;100174.44;4988198;28;20073;-83
2022/01/07 06:07:49;;;;;;;27.63;11.23;;;;;;;2.19;74.77;100170.13;4972019;28;20049;-84
2022/01/07 06:10:15;;;;;;;33.78;13.68;;;;;;;2.19;74.96;100162.28;4952161;28;20046;-83
2022/01/07 06:12:42;;;;;;;30.00;12.55;;;;;;;2.19;74.82;100162.28;4954759;28;20055;-83
2022/01/07 06:15:10;;;;;;;33.28;14.02;;;;;;;2.18;75.05;100160.56;4988431;28;20458;-84
2022/01/07 06:17:37;;;;;;;27.58;12.23;;;;;;;2.20;74.82;100153.47;4963908;28;20406;-83
2022/01/07 06:20:05;;;;;;;43.05;14.52;;;;;;;2.20;75.06;100150.00;4987290;28;20041;-83
2022/01/07 06:22:32;;;;;;;38.25;13.93;;;;;;;2.18;74.79;100153.53;4985851;28;20074;-84
2022/01/07 06:24:59;;;;;;;27.25;11.82;;;;;;;2.19;74.71;100151.78;4973241;28;20054;-83
2022/01/07 06:27:26;;;;;;;38.72;14.50;;;;;;;2.18;74.91;100152.69;4988244;28;20054;-83
2022/01/07 06:30:20;;;;;;;26.80;12.40;;;;;;;2.10;75.03;100146.97;4974817;28;20096;-83
2022/01/07 06:32:47;;;;;;;29.27;12.95;;;;;;;2.17;74.93;100140.53;4961826;28;20056;-83
2022/01/07 06:35:14;;;;;;;30.75;13.63;;;;;;;2.17;75.06;100140.53;4979793;28;20516;-83
2022/01/07 06:37:40;;;;;;;34.17;14.27;;;;;;;2.16;75.14;100142.31;4969800;28;20062;-84
2022/01/07 06:40:08;;;;;;;38.92;14.35;;;;;;;2.17;75.02;100143.16;4971996;28;20046;-83
2022/01/07 06:42:34;;;;;;;31.10;12.85;;;;;;;2.17;75.11;100138.75;4950553;28;20054;-85
2022/01/07 06:45:05;;;;;;;30.02;12.60;;;;;;;2.18;74.90;100142.22;4957889;28;20418;-85
2022/01/07 06:47:32;;;;;;;31.02;13.18;;;;;;;2.17;75.02;100135.28;4988759;28;20359;-85
2022/01/07 06:49:59;;;;;;;43.38;14.85;;;;;;;2.17;74.88;100144.00;4968830;28;20383;-85
2022/01/07 06:52:26;;;;;;;45.13;15.15;;;;;;;2.16;74.87;100137.06;4959016;28;20058;-84
2022/01/07 06:54:53;;;;;;;39.97;14.27;;;;;;;2.17;74.94;100140.53;4987303;28;20125;-85
2022/01/07 06:57:19;;;;;;;41.95;15.48;;;;;;;2.16;74.79;100137.06;4983299;28;20410;-85
2022/01/07 06:59:50;;;;;;;46.78;14.60;;;;;;;2.15;74.55;100130.13;4953153;28;21192;-85
2022/01/07 07:02:17;;;;;;;41.47;14.75;;;;;;;2.15;74.54;100132.72;4988798;28;20065;-84
2022/01/07 07:04:46;;;;;;;32.88;13.13;;;;;;;2.15;74.88;100126.66;4974983;28;20051;-85
2022/01/07 07:07:14;;;;;;;31.58;11.13;;;;;;;2.15;74.69;100126.66;4958058;28;20855;-85
2022/01/07 07:09:40;;;;;;;37.95;12.75;;;;;;;2.13;74.81;100125.88;4960811;28;20054;-85
2022/01/07 07:12:08;;;;;;;28.90;11.65;;;;;;;2.14;74.68;100127.59;4985082;28;20038;-85
2022/01/07 07:14:36;;;;;;;29.65;10.95;;;;;;;2.13;74.89;100120.63;4954538;28;20049;-85
2022/01/07 07:17:03;;;;;;;29.38;10.55;;;;;;;2.13;74.93;100120.63;4981275;28;20038;-85
2022/01/07 07:19:30;;;;;;;24.40;10.25;;;;;;;2.12;74.67;100121.56;4973250;28;20406;-85
2022/01/07 07:21:56;;;;;;;31.77;11.93;;;;;;;2.12;74.70;100116.34;4956698;28;20116;-85
2022/01/07 07:24:23;;;;;;;34.13;12.15;;;;;;;2.11;74.56;100120.72;4982433;28;20120;-85
2022/01/07 07:26:50;;;;;;;23.60;9.88;;;;;;;2.11;74.62;100119.84;4981054;28;20073;-85
2022/01/07 07:29:17;;;;;;;27.48;11.23;;;;;;;2.09;74.57;100113.88;4968735;28;20042;-85
2022/01/07 07:31:48;;;;;;;33.83;11.57;;;;;;;2.08;74.79;100123.47;4968693;28;20101;-85
2022/01/07 07:34:44;;;;;;;30.50;11.63;;;;;;;2.09;74.54;100126.97;4983208;28;20100;-85
2022/01/07 07:37:05;;;;;;;31.98;12.07;;;;;;;2.08;74.48;100114.78;4950769;28;20078;-85
2022/01/07 07:39:33;;;;;;;27.38;10.80;;;;;;;2.07;74.65;100116.56;4980119;28;20042;-85
2022/01/07 07:42:00;;;;;;;28.85;11.43;;;;;;;2.07;74.61;100113.94;4966227;28;20531;-85
2022/01/07 07:44:31;;;;;;;28.85;10.52;;;;;;;2.07;74.66;100121.78;4967540;28;20042;-85
2022/01/07 07:46:58;;;;;;;26.10;11.35;;;;;;;2.06;74.50;100116.63;4952871;28;20038;-85
2022/01/07 07:49:25;;;;;;;35.75;12.18;;;;;;;2.04;74.79;100121.94;4973872;28;20053;-85
2022/01/07 07:51:53;;;;;;;31.20;11.07;;;;;;;2.05;74.53;100125.41;4954996;28;20048;-86
2022/01/07 07:54:20;;;;;;;28.80;11.00;;;;;;;2.05;74.75;100114.94;4963425;28;20050;-85
2022/01/07 07:56:47;;;;;;;23.77;11.07;;;;;;;2.05;74.54;100110.53;4966077;28;20061;-85
2022/01/07 07:59:14;;;;;;;30.13;11.88;;;;;;;2.05;74.49;100104.44;4988421;28;20046;-85
2022/01/07 08:01:41;;;;;;;31.98;12.25;;;;;;;2.05;74.46;100107.06;4985333;28;20057;-85
2022/01/07 08:04:11;;;;;;;29.10;11.10;;;;;;;2.04;74.51;100100.16;4967468;28;20113;-85
2022/01/07 08:06:37;;;;;;;42.85;14.27;;;;;;;2.06;74.49;100103.53;4967136;28;20080;-87
2022/01/07 08:09:04;;;;;;;34.28;14.93;;;;;;;2.06;74.71;100106.13;4965917;28;20049;-87
2022/01/07 08:11:37;;;;;;;38.75;16.55;;;;;;;2.07;74.59;100105.22;4969539;28;20062;-86
2022/01/07 08:16:51;;;;;;;48.97;16.65;;;;;;;2.06;74.88;100104.38;4943074;28;20119;-89
2022/01/07 08:20:08;;;;;;;44.25;17.00;;;;;;;1.99;74.64;100103.00;4971724;28;20049;-90
2022/01/07 08:22:35;;;;;;;34.25;13.45;;;;;;;2.06;74.58;100096.53;4932907;28;20050;-90
2022/01/07 08:28:50;;;;;;;30.50;11.65;;;;;;;2.02;74.82;100102.84;4942166;28;20553;-90
2022/01/07 08:31:27;;;;;;;25.75;11.43;;;;;;;2.04;74.97;100094.91;4918623;28;20430;-90
2022/01/07 08:36:40;;;;;;;27.58;9.18;;;;;;;2.06;74.79;100093.91;4916366;28;20150;-91
2022/01/07 08:39:11;;;;;;;26.25;9.93;;;;;;;2.03;74.84;100086.19;4921885;28;20054;-89
2022/01/07 08:46:20;;;;;;;34.78;12.13;;;;;;;2.02;74.76;100081.88;4931791;28;20063;-89
2022/01/07 08:48:47;;;;;;;40.40;12.98;;;;;;;2.04;74.85;100084.44;4911930;28;22416;-90
2022/01/07 08:52:05;;;;;;;38.38;13.18;;;;;;;1.98;75.02;100089.97;4929149;28;20049;-91
2022/01/07 08:54:31;;;;;;;36.75;13.77;;;;;;;2.05;74.85;100093.97;4880765;28;20392;-91
2022/01/07 08:56:58;;;;;;;32.40;11.68;;;;;;;2.05;75.05;100089.59;4911339;28;20047;-86
2022/01/07 08:59:25;;;;;;;29.55;13.23;;;;;;;2.07;75.17;100092.97;4924508;28;20044;-86
2022/01/07 09:01:52;;;;;;;25.45;10.88;;;;;;;2.08;74.96;100084.19;4927406;28;20051;-86
2022/01/07 09:04:19;;;;;;;24.88;12.18;;;;;;;2.08;75.37;100081.56;4941131;28;20054;-85
2022/01/07 09:06:45;;;;;;;28.52;11.70;;;;;;;2.10;75.32;100086.75;4983527;28;20050;-86
2022/01/07 09:09:12;;;;;;;29.73;11.48;;;;;;;2.09;75.59;100075.41;4981098;28;20073;-89
2022/01/07 09:12:34;;;;;;;26.95;10.45;;;;;;;2.04;75.64;100087.06;4970901;28;20425;-87
2022/01/07 09:15:01;;;;;;;23.80;8.60;;;;;;;2.10;75.60;100091.97;4939530;28;20047;-88
2022/01/07 09:17:30;;;;;;;22.92;10.32;;;;;;;2.11;75.47;100085.81;4962601;28;20060;-87
2022/01/07 09:19:56;;;;;;;23.48;9.68;;;;;;;2.12;75.51;100075.25;4966513;28;20045;-87
2022/01/07 09:22:23;;;;;;;34.33;10.32;;;;;;;2.14;75.80;100085.69;4957036;28;20053;-88
2022/01/07 09:24:51;;;;;;;22.40;9.85;;;;;;;2.17;75.66;100090.75;4972419;28;20454;-87
2022/01/07 09:27:17;;;;;;;27.67;10.65;;;;;;;2.16;75.75;100081.19;4968355;28;20046;-87
2022/01/07 09:29:45;;;;;;;29.15;10.43;;;;;;;2.16;75.80;100089.03;4968645;28;20052;-87
2022/01/07 09:32:13;;;;;;;29.25;11.70;;;;;;;2.15;75.93;100093.44;4952824;28;20397;-87
2022/01/07 09:34:39;;;;;;;24.33;10.43;;;;;;;2.13;76.00;100082.19;4957627;28;20048;-87
2022/01/07 09:37:06;;;;;;;29.35;11.02;;;;;;;2.12;75.88;100088.34;4954058;28;20042;-88
2022/01/07 09:39:33;;;;;;;26.80;11.82;;;;;;;2.14;76.05;100080.44;4971297;28;20686;-86
2022/01/07 09:42:01;;;;;;;41.80;13.90;;;;;;;2.14;75.97;100083.06;4973419;28;20073;-88
2022/01/07 09:44:28;;;;;;;29.65;11.07;;;;;;;2.16;75.98;100075.94;4961790;28;20429;-87
2022/01/07 09:46:55;;;;;;;33.80;12.02;;;;;;;2.15;75.99;100082.13;4963433;28;20053;-87
2022/01/07 09:49:22;;;;;;;31.50;11.38;;;;;;;2.13;75.98;100082.19;4971134;28;20049;-90
2022/01/07 09:51:49;;;;;;;34.92;11.75;;;;;;;2.13;75.87;100074.31;4957315;28;20050;-89
2022/01/07 09:54:16;;;;;;;31.15;12.90;;;;;;;2.13;76.10;100076.09;4968168;28;20042;-89
2022/01/07 09:56:43;;;;;;;29.13;12.35;;;;;;;2.12;76.04;100064.78;4953003;28;20056;-90
2022/01/07 09:59:10;;;;;;;29.95;12.02;;;;;;;2.14;76.30;100062.09;4957097;28;20056;-89
2022/01/07 10:01:56;;;;;;;30.23;13.00;;;;;;;2.07;76.62;100055.47;4945312;28;20050;-89
2022/01/07 10:04:38;;;;;;;29.90;11.68;;;;;;;2.07;76.38;100056.31;4987234;28;20097;-89
2022/01/07 10:07:13;;;;;;;33.33;11.90;;;;;;;2.10;76.27;100047.44;4951020;28;20043;-90
2022/01/07 10:09:40;;;;;;;29.33;11.70;;;;;;;2.12;76.39;100054.31;4982569;28;20406;-87
2022/01/07 10:12:08;;;;;;;32.13;13.27;;;;;;;2.13;76.18;100050.75;4967560;28;20046;-89
2022/01/07 10:15:08;;;;;;;33.28;12.73;;;;;;;2.07;76.73;100045.00;4991032;28;20054;-89
2022/01/07 10:17:35;;;;;;;29.95;11.70;;;;;;;2.13;76.33;100042.88;4921649;28;20046;-89
2022/01/07 10:24:30;;;;;;;31.67;13.25;;;;;;;2.11;76.42;100033.41;4961533;28;20049;-87
2022/01/07 10:27:11;;;;;;;29.75;10.63;;;;;;;2.09;76.52;100022.19;4995166;28;20482;-88
2022/01/07 10:30:11;;;;;;;31.85;12.13;;;;;;;2.08;76.88;100023.94;4965729;28;20129;-88
2022/01/07 10:32:38;;;;;;;45.28;14.02;;;;;;;2.13;76.58;100026.31;4941455;28;20058;-88
2022/01/07 10:35:07;;;;;;;31.90;11.82;;;;;;;2.14;76.61;100014.94;4953091;28;20383;-89
2022/01/07 10:37:36;;;;;;;34.20;12.95;;;;;;;2.14;76.84;100007.09;4984172;28;20058;-91
2022/01/07 10:40:26;;;;;;;39.80;12.75;;;;;;;2.09;76.99;100014.34;4986103;28;20050;-89
2022/01/07 10:43:24;;;;;;;40.65;13.60;;;;;;;2.09;76.90;100016.94;4931443;28;20051;-91
2022/01/07 10:45:59;;;;;;;30.35;11.60;;;;;;;2.12;76.69;100012.38;4930643;28;20089;-85
2022/01/07 10:48:51;;;;;;;22.63;9.52;;;;;;;2.09;76.78;100012.56;4982620;28;20077;-86
2022/01/07 10:51:25;;;;;;;28.70;10.90;;;;;;;2.11;76.65;100013.31;4951843;28;20050;-85
2022/01/07 10:53:55;;;;;;;28.60;10.70;;;;;;;2.14;76.71;100007.09;4920943;28;20047;-87
2022/01/07 10:56:24;;;;;;;22.58;7.70;;;;;;;2.16;76.74;100010.44;4933001;28;20050;-89
2022/01/07 10:59:11;;;;;;;22.25;10.60;;;;;;;2.11;76.84;99999.34;4915768;28;20082;-90
2022/01/07 11:01:42;;;;;;;26.23;10.85;;;;;;;2.18;76.71;100009.44;4951936;28;20055;-91
2022/01/07 11:04:13;;;;;;;27.92;11.52;;;;;;;2.22;76.89;100002.28;4944983;28;20188;-90
2022/01/07 11:06:42;;;;;;;37.47;12.65;;;;;;;2.23;76.64;100003.13;4902986;28;20485;-90
2022/01/07 11:09:12;;;;;;;37.00;13.02;;;;;;;2.24;76.69;99999.56;4932585;28;20062;-90
2022/01/07 11:11:43;;;;;;;42.28;13.35;;;;;;;2.23;76.69;99995.28;4966257;28;20621;-88
2022/01/07 11:14:12;;;;;;;33.50;11.95;;;;;;;2.25;76.61;99990.81;4962738;28;20522;-90
2022/01/07 11:17:06;;;;;;;36.22;13.95;;;;;;;2.18;76.80;99985.88;4919874;28;20270;-89
2022/01/07 11:19:37;;;;;;;;;;;;;;;2.10;77.03;99980.19;4903500;28;20047;-90
2022/01/07 11:22:30;;;;;;;33.28;13.07;;;;;;;2.14;77.02;99991.38;4963034;28;19958;-89
2022/01/07 11:24:56;;;;;;;37.05;13.27;;;;;;;2.22;76.61;99983.97;4919958;28;20042;-88
2022/01/07 11:27:27;;;;;;;33.92;13.50;;;;;;;2.24;76.62;99976.00;4935406;28;20452;-87
2022/01/07 11:30:22;;;;;;;25.80;12.50;;;;;;;2.21;76.77;99976.16;4967241;28;20053;-90
2022/01/07 11:32:52;;;;;;;39.85;12.00;;;;;;;2.27;76.89;99970.63;4934215;28;20038;-89
2022/01/07 11:35:21;;;;;;;29.33;12.18;;;;;;;2.27;76.73;99968.84;4934672;28;20051;-88
2022/01/07 11:38:38;;;;;;;31.63;13.27;;;;;;;2.20;76.82;99969.25;4978962;28;20046;-91
2022/01/07 11:41:11;;;;;;;36.00;16.33;;;;;;;2.23;76.84;99971.69;4978828;28;20382;-88
2022/01/07 11:43:47;;;;;;;34.42;12.10;;;;;;;2.20;76.59;99967.47;4937130;28;20040;-90
2022/01/07 11:46:23;;;;;;;36.00;13.52;;;;;;;2.18;76.77;99964.06;4931608;28;20134;-86
2022/01/07 11:48:51;;;;;;;29.70;13.00;;;;;;;2.22;76.72;99973.47;4956236;28;20067;-90
2022/01/07 11:51:18;;;;;;;33.97;13.40;;;;;;;2.20;76.97;99964.84;4954140;28;20062;-91
2022/01/07 11:53:50;;;;;;;35.63;13.38;;;;;;;2.22;76.90;99965.63;4966244;28;20038;-91